Time;durP1;ratioP1;P1;durP2;ratioP2;P2;SDS_P1;SDS_P2;PMS_P1;PMS_P2;Temp;Humidity;BMP_temperature;BMP_pressure;BME280_temperature;BME280_humidity;BME280_pressure;Samples;Min_cycle;Max_cycle;Signal;HPM_P1;HPM_P2
2023/04/03 00:01:07;;;;;;;0.88;0.88;;;;;;;;;;5076814;28;20495;-77
2023/04/03 00:03:32;;;;;;;0.80;0.80;;;;;;;;;;5093573;28;20047;-76
2023/04/03 00:05:58;;;;;;;1.35;0.90;;;;;;;;;;5076659;28;20028;-77
2023/04/03 00:08:24;;;;;;;1.67;1.10;;;;;;;;;;5093564;28;20028;-77
2023/04/03 00:10:49;;;;;;;0.82;0.73;;;;;;;;;;5093391;28;20107;-77
2023/04/03 00:13:16;;;;;;;0.95;0.75;;;;;;;;;;5092129;28;20039;-77
2023/04/03 00:15:42;;;;;;;1.15;0.80;;;;;;;;;;5094913;28;20421;-77
2023/04/03 00:18:08;;;;;;;0.80;0.80;;;;;;;;;;5093222;28;20031;-77
2023/04/03 00:20:33;;;;;;;1.05;0.82;;;;;;;;;;5093152;28;20031;-77
2023/04/03 00:22:59;;;;;;;1.33;1.00;;;;;;;;;;5093686;28;20085;-78
2023/04/03 00:25:25;;;;;;;1.23;0.90;;;;;;;;;;5076171;28;20032;-79
2023/04/03 00:27:50;;;;;;;1.38;0.90;;;;;;;;;;5094669;28;20024;-78
2023/04/03 00:30:18;;;;;;;0.90;0.80;;;;;;;;;;5076075;28;20028;-79
2023/04/03 00:32:43;;;;;;;1.27;1.05;;;;;;;;;;5093063;28;20111;-78
2023/04/03 00:35:09;;;;;;;0.70;0.70;;;;;;;;;;5093427;28;20123;-79
2023/04/03 00:37:35;;;;;;;1.67;0.82;;;;;;;;;;5076214;28;20097;-79
2023/04/03 00:40:01;;;;;;;1.15;0.93;;;;;;;;;;5076280;28;20078;-78
2023/04/03 00:42:26;;;;;;;0.98;0.98;;;;;;;;;;5093106;28;20039;-79
2023/04/03 00:44:58;;;;;;;1.17;0.75;;;;;;;;;;5093191;28;20136;-79
2023/04/03 00:47:24;;;;;;;2.05;0.93;;;;;;;;;;5092697;28;20023;-79
2023/04/03 00:49:51;;;;;;;0.80;0.80;;;;;;;;;;5075729;28;20131;-79
2023/04/03 00:52:18;;;;;;;1.52;0.85;;;;;;;;;;5093331;28;20027;-79
2023/04/03 00:54:45;;;;;;;1.52;0.98;;;;;;;;;;5092620;28;20024;-79
2023/04/03 00:57:11;;;;;;;1.40;0.93;;;;;;;;;;5092645;28;20035;-79
2023/04/03 00:59:40;;;;;;;0.93;0.85;;;;;;;;;;5075513;28;20378;-77
2023/04/03 01:02:06;;;;;;;2.25;0.90;;;;;;;;;;5092557;28;20512;-79
2023/04/03 01:04:35;;;;;;;0.80;0.80;;;;;;;;;;5092761;28;20024;-79
2023/04/03 01:07:23;;;;;;;1.33;0.82;;;;;;;;;;5075654;28;20051;-77
2023/04/03 01:09:52;;;;;;;1.65;0.93;;;;;;;;;;5093273;28;20047;-77
2023/04/03 01:12:25;;;;;;;0.95;0.88;;;;;;;;;;5092785;28;20023;-77
2023/04/03 01:15:16;;;;;;;1.67;1.03;;;;;;;;;;5092701;28;20023;-79
2023/04/03 01:17:50;;;;;;;1.23;0.88;;;;;;;;;;5092197;28;20310;-76
2023/04/03 01:20:36;;;;;;;1.00;0.90;;;;;;;;;;5092324;28;20026;-77
2023/04/03 01:23:10;;;;;;;2.13;1.05;;;;;;;;;;5075120;28;20090;-77
2023/04/03 01:25:45;;;;;;;1.50;0.90;;;;;;;;;;5092799;28;20031;-78
2023/04/03 01:28:17;;;;;;;0.60;0.60;;;;;;;;;;5075459;28;20024;-79
2023/04/03 01:30:54;;;;;;;1.85;0.82;;;;;;;;;;5091612;28;20038;-79
2023/04/03 01:33:20;;;;;;;0.80;0.80;;;;;;;;;;5092147;28;20020;-77
2023/04/03 01:35:45;;;;;;;0.93;0.90;;;;;;;;;;5091809;28;20019;-78
2023/04/03 01:38:10;;;;;;;0.90;0.90;;;;;;;;;;5091930;28;20032;-78
2023/04/03 01:40:37;;;;;;;1.45;0.90;;;;;;;;;;5093071;28;20397;-79
2023/04/03 01:43:02;;;;;;;1.35;0.90;;;;;;;;;;5091997;28;20410;-78
2023/04/03 01:45:27;;;;;;;1.00;0.90;;;;;;;;;;5093010;28;20106;-78
2023/04/03 01:47:53;;;;;;;0.98;0.90;;;;;;;;;;5092905;28;20028;-78
2023/04/03 01:50:18;;;;;;;2.95;0.98;;;;;;;;;;5074677;28;20494;-79
2023/04/03 01:52:44;;;;;;;1.00;0.90;;;;;;;;;;5092893;28;20032;-79
2023/04/03 01:55:09;;;;;;;1.25;1.00;;;;;;;;;;5092827;28;20028;-78
2023/04/03 01:57:35;;;;;;;1.05;0.95;;;;;;;;;;5091509;28;20036;-78
2023/04/03 02:00:00;;;;;;;0.88;0.82;;;;;;;;;;5091755;28;20371;-78
2023/04/03 02:02:25;;;;;;;1.30;1.00;;;;;;;;;;5091989;28;20028;-78
2023/04/03 02:04:51;;;;;;;1.13;1.02;;;;;;;;;;5093004;28;20489;-78
2023/04/03 02:07:16;;;;;;;1.33;0.88;;;;;;;;;;5091686;28;20123;-78
2023/04/03 02:09:41;;;;;;;1.90;1.02;;;;;;;;;;5091761;28;20032;-78
2023/04/03 02:12:07;;;;;;;1.08;0.90;;;;;;;;;;5075590;28;20036;-78
2023/04/03 02:14:32;;;;;;;1.45;1.00;;;;;;;;;;5092255;28;20056;-78
2023/04/03 02:16:58;;;;;;;0.85;0.85;;;;;;;;;;5091429;28;20085;-79
2023/04/03 02:19:23;;;;;;;1.30;0.80;;;;;;;;;;5091847;28;20032;-77
2023/04/03 02:21:48;;;;;;;0.70;0.70;;;;;;;;;;5074644;28;20379;-78
2023/04/03 02:24:14;;;;;;;1.05;1.00;;;;;;;;;;5091705;28;20032;-79
2023/04/03 02:26:39;;;;;;;1.08;0.90;;;;;;;;;;5091446;28;20505;-78
2023/04/03 02:29:05;;;;;;;2.60;0.75;;;;;;;;;;5092722;28;20028;-79
2023/04/03 02:31:31;;;;;;;1.27;0.88;;;;;;;;;;5092630;28;20028;-78
2023/04/03 02:33:56;;;;;;;0.75;0.75;;;;;;;;;;5091721;28;20028;-77
2023/04/03 02:36:21;;;;;;;1.73;0.90;;;;;;;;;;5076599;28;20382;-78
2023/04/03 02:38:48;;;;;;;1.30;0.90;;;;;;;;;;5096432;28;20054;-78
2023/04/03 02:41:13;;;;;;;2.05;1.02;;;;;;;;;;5095431;28;20036;-78
2023/04/03 02:43:39;;;;;;;0.90;0.82;;;;;;;;;;5096311;28;20394;-78
2023/04/03 02:46:05;;;;;;;1.88;0.98;;;;;;;;;;5095033;28;20482;-78
2023/04/03 02:48:30;;;;;;;1.00;0.90;;;;;;;;;;5078041;28;20385;-78
2023/04/03 02:50:56;;;;;;;1.85;0.98;;;;;;;;;;5078056;28;20052;-78
2023/04/03 02:53:22;;;;;;;1.80;0.90;;;;;;;;;;5096149;28;20036;-78
2023/04/03 02:55:47;;;;;;;0.77;0.70;;;;;;;;;;5078128;28;20027;-78
2023/04/03 02:58:13;;;;;;;1.42;0.90;;;;;;;;;;5061306;28;20055;-78
2023/04/03 03:00:38;;;;;;;0.90;0.90;;;;;;;;;;5061181;28;20035;-78
2023/04/03 03:03:03;;;;;;;0.77;0.77;;;;;;;;;;5096057;28;20046;-78
2023/04/03 03:05:30;;;;;;;1.00;0.90;;;;;;;;;;5061132;28;20028;-79
2023/04/03 03:07:55;;;;;;;1.00;0.90;;;;;;;;;;5078146;28;20099;-78
2023/04/03 03:10:21;;;;;;;2.03;1.10;;;;;;;;;;5077795;28;20111;-79
2023/04/03 03:12:46;;;;;;;1.50;0.90;;;;;;;;;;5095881;28;20175;-78
2023/04/03 03:15:12;;;;;;;1.38;0.90;;;;;;;;;;5095835;28;20114;-78
2023/04/03 03:17:37;;;;;;;1.00;0.88;;;;;;;;;;5060712;28;20433;-78
2023/04/03 03:20:04;;;;;;;2.35;0.90;;;;;;;;;;5077658;28;20031;-78
2023/04/03 03:22:30;;;;;;;1.40;1.00;;;;;;;;;;5095943;28;20024;-78
2023/04/03 03:24:55;;;;;;;1.45;0.80;;;;;;;;;;5077536;28;20023;-78
2023/04/03 03:27:21;;;;;;;1.52;1.00;;;;;;;;;;5095277;28;20051;-78
2023/04/03 03:29:46;;;;;;;1.90;0.90;;;;;;;;;;5077318;28;20032;-77
2023/04/03 03:32:12;;;;;;;0.82;0.80;;;;;;;;;;5077349;28;20081;-78
2023/04/03 03:34:37;;;;;;;1.92;1.13;;;;;;;;;;5077418;28;20032;-78
2023/04/03 03:37:03;;;;;;;1.70;1.00;;;;;;;;;;5077221;28;20031;-78
2023/04/03 03:39:28;;;;;;;1.65;1.17;;;;;;;;;;5077229;28;20028;-78
2023/04/03 03:41:54;;;;;;;3.88;1.10;;;;;;;;;;5077850;28;20027;-78
2023/04/03 03:44:20;;;;;;;1.25;0.77;;;;;;;;;;5095363;28;20076;-77
2023/04/03 03:46:45;;;;;;;1.20;1.00;;;;;;;;;;5060018;28;20024;-78
2023/04/03 03:49:11;;;;;;;1.30;0.90;;;;;;;;;;5095255;28;20035;-79
2023/04/03 03:51:37;;;;;;;2.22;1.30;;;;;;;;;;5076917;28;20146;-78
2023/04/03 03:54:03;;;;;;;1.85;1.00;;;;;;;;;;5060234;28;20047;-78
2023/04/03 03:56:28;;;;;;;1.80;1.10;;;;;;;;;;5077032;28;20475;-78
2023/04/03 03:58:55;;;;;;;2.45;1.00;;;;;;;;;;5095135;28;20027;-78
2023/04/03 04:01:22;;;;;;;2.65;1.10;;;;;;;;;;5095039;28;20394;-77
2023/04/03 04:03:47;;;;;;;1.88;0.88;;;;;;;;;;5060635;28;20040;-78
2023/04/03 04:06:13;;;;;;;2.03;0.90;;;;;;;;;;5077421;28;20102;-76
2023/04/03 04:08:38;;;;;;;1.58;0.98;;;;;;;;;;5060583;28;20027;-77
2023/04/03 04:11:04;;;;;;;1.92;1.10;;;;;;;;;;5077056;28;20552;-77
2023/04/03 04:13:29;;;;;;;6.53;1.40;;;;;;;;;;5095247;28;20111;-78
2023/04/03 04:15:54;;;;;;;2.03;1.27;;;;;;;;;;5077819;28;20027;-77
2023/04/03 04:18:21;;;;;;;4.65;1.40;;;;;;;;;;5076999;28;20055;-77
2023/04/03 04:20:46;;;;;;;1.75;1.00;;;;;;;;;;5095371;28;20031;-77
2023/04/03 04:23:12;;;;;;;2.38;1.17;;;;;;;;;;5076822;28;20036;-78
2023/04/03 04:25:37;;;;;;;3.03;1.40;;;;;;;;;;5076986;28;20039;-76
2023/04/03 04:28:02;;;;;;;1.70;1.08;;;;;;;;;;5094977;28;20028;-76
2023/04/03 04:30:28;;;;;;;2.55;1.00;;;;;;;;;;5094890;28;20028;-75
2023/04/03 04:32:53;;;;;;;1.70;1.23;;;;;;;;;;5076365;28;20031;-78
2023/04/03 04:35:19;;;;;;;1.73;0.93;;;;;;;;;;5076740;28;20106;-76
2023/04/03 04:37:44;;;;;;;2.72;1.20;;;;;;;;;;5059668;28;20032;-77
2023/04/03 04:40:10;;;;;;;4.10;1.17;;;;;;;;;;5076628;28;20028;-77
2023/04/03 04:42:35;;;;;;;1.40;1.08;;;;;;;;;;5076474;28;20043;-77
2023/04/03 04:45:00;;;;;;;2.90;1.17;;;;;;;;;;5076428;28;20105;-77
2023/04/03 04:47:28;;;;;;;8.45;1.40;;;;;;;;;;5094356;28;20020;-77
2023/04/03 04:49:53;;;;;;;3.20;1.40;;;;;;;;;;5059480;28;20059;-78
2023/04/03 04:52:19;;;;;;;3.80;1.52;;;;;;;;;;5094236;28;20031;-81
2023/04/03 04:54:44;;;;;;;9.18;2.38;;;;;;;;;;5094371;28;20038;-79
2023/04/03 04:57:10;;;;;;;9.73;2.22;;;;;;;;;;5076023;28;20028;-78
2023/04/03 04:59:36;;;;;;;8.38;2.88;;;;;;;;;;5075375;28;20036;-79
2023/04/03 05:02:01;;;;;;;7.82;2.33;;;;;;;;;;5075693;28;20024;-79
2023/04/03 05:04:26;;;;;;;5.93;1.70;;;;;;;;;;5094166;28;20024;-79
2023/04/03 05:06:52;;;;;;;4.18;1.60;;;;;;;;;;5093693;28;20089;-79
2023/04/03 05:09:19;;;;;;;6.88;1.95;;;;;;;;;;5075573;28;20115;-80
2023/04/03 05:11:45;;;;;;;3.92;1.63;;;;;;;;;;5094039;28;20035;-79
2023/04/03 05:14:11;;;;;;;3.75;1.42;;;;;;;;;;5075822;28;20028;-79
2023/04/03 05:16:36;;;;;;;4.53;1.40;;;;;;;;;;5075573;28;20051;-78
2023/04/03 05:19:02;;;;;;;3.17;1.58;;;;;;;;;;5075813;28;20032;-79
2023/04/03 05:21:31;;;;;;;8.20;1.70;;;;;;;;;;5075656;28;20035;-79
2023/04/03 05:23:57;;;;;;;3.65;1.40;;;;;;;;;;5093924;28;20024;-79
2023/04/03 05:26:22;;;;;;;3.97;1.40;;;;;;;;;;5093860;28;20028;-78
2023/04/03 05:28:48;;;;;;;4.35;1.35;;;;;;;;;;5093556;28;20035;-79
2023/04/03 05:31:13;;;;;;;1.88;1.33;;;;;;;;;;5093383;28;20115;-78
2023/04/03 05:33:38;;;;;;;3.65;1.30;;;;;;;;;;5092684;28;20436;-78
2023/04/03 05:36:05;;;;;;;6.55;1.55;;;;;;;;;;5042124;28;20114;-78
2023/04/03 05:38:31;;;;;;;4.43;1.30;;;;;;;;;;5074687;28;20035;-78
2023/04/03 05:40:57;;;;;;;3.53;1.33;;;;;;;;;;5057938;28;20028;-78
2023/04/03 05:43:22;;;;;;;9.55;1.48;;;;;;;;;;5074563;28;20028;-79
2023/04/03 05:45:48;;;;;;;4.20;1.45;;;;;;;;;;5093037;28;20393;-78
2023/04/03 05:48:13;;;;;;;4.60;1.50;;;;;;;;;;5093584;28;20031;-78
2023/04/03 05:50:41;;;;;;;2.88;1.38;;;;;;;;;;5057698;28;20048;-77
2023/04/03 05:53:07;;;;;;;3.10;1.35;;;;;;;;;;5058731;28;20024;-77
2023/04/03 05:55:32;;;;;;;2.95;1.30;;;;;;;;;;5074810;28;20043;-79
2023/04/03 05:57:58;;;;;;;1.55;1.10;;;;;;;;;;5074374;28;20043;-78
2023/04/03 06:00:23;;;;;;;2.63;1.10;;;;;;;;;;5092774;28;20141;-78
2023/04/03 06:02:49;;;;;;;2.40;1.00;;;;;;;;;;5074845;28;20028;-78
2023/04/03 06:05:14;;;;;;;3.33;1.60;;;;;;;;;;5074230;28;20473;-78
2023/04/03 06:07:40;;;;;;;1.35;1.10;;;;;;;;;;5092482;28;20024;-78
2023/04/03 06:10:06;;;;;;;2.45;1.05;;;;;;;;;;5075776;28;20056;-77
2023/04/03 06:12:32;;;;;;;1.38;1.05;;;;;;;;;;5097311;28;20070;-79
2023/04/03 06:14:57;;;;;;;2.67;1.00;;;;;;;;;;5079195;28;20032;-79
2023/04/03 06:17:23;;;;;;;2.00;1.20;;;;;;;;;;5061570;28;20217;-79
2023/04/03 06:19:49;;;;;;;1.23;1.00;;;;;;;;;;5061446;28;20076;-78
2023/04/03 06:22:14;;;;;;;4.00;1.08;;;;;;;;;;5096536;28;20470;-78
2023/04/03 06:24:40;;;;;;;2.00;0.90;;;;;;;;;;5045420;28;20062;-78
2023/04/03 06:27:05;;;;;;;1.90;1.10;;;;;;;;;;5096707;28;20084;-78
2023/04/03 06:29:30;;;;;;;1.52;1.20;;;;;;;;;;5077967;28;20028;-78
2023/04/03 06:31:56;;;;;;;1.95;1.05;;;;;;;;;;5078405;28;20043;-79
2023/04/03 06:34:22;;;;;;;2.05;1.05;;;;;;;;;;5096304;28;20123;-79
2023/04/03 06:36:48;;;;;;;2.70;1.20;;;;;;;;;;5078116;28;20066;-79
2023/04/03 06:39:16;;;;;;;3.28;1.13;;;;;;;;;;5095977;28;20028;-77
2023/04/03 06:41:42;;;;;;;1.35;1.00;;;;;;;;;;5078500;28;20119;-79
2023/04/03 06:44:10;;;;;;;2.63;0.95;;;;;;;;;;5077893;28;20109;-79
2023/04/03 06:46:37;;;;;;;1.38;1.10;;;;;;;;;;5078510;28;20097;-79
2023/04/03 06:49:02;;;;;;;2.95;1.20;;;;;;;;;;5061049;28;20498;-79
2023/04/03 06:51:29;;;;;;;1.90;1.15;;;;;;;;;;5095550;28;20087;-79
2023/04/03 06:53:56;;;;;;;1.63;0.90;;;;;;;;;;5077645;28;20486;-79
2023/04/03 06:56:22;;;;;;;1.77;1.00;;;;;;;;;;5077779;28;20020;-79
2023/04/03 06:58:48;;;;;;;1.23;0.90;;;;;;;;;;5077574;28;20050;-79
2023/04/03 07:01:16;;;;;;;2.63;1.20;;;;;;;;;;5077444;28;20436;-79
2023/04/03 07:03:41;;;;;;;2.80;1.10;;;;;;;;;;5077872;28;20528;-78
2023/04/03 07:06:09;;;;;;;2.15;1.20;;;;;;;;;;5077577;28;20032;-78
2023/04/03 07:08:34;;;;;;;1.10;0.90;;;;;;;;;;5061111;28;20115;-78
2023/04/03 07:11:00;;;;;;;1.70;1.13;;;;;;;;;;5077926;28;20116;-78
2023/04/03 07:13:26;;;;;;;3.40;1.20;;;;;;;;;;5077518;28;20055;-79
2023/04/03 07:15:52;;;;;;;1.35;0.93;;;;;;;;;;5061261;28;20442;-78
2023/04/03 07:18:18;;;;;;;3.55;1.10;;;;;;;;;;5077883;28;20024;-79
2023/04/03 07:20:43;;;;;;;1.23;1.00;;;;;;;;;;5096071;28;20524;-78
2023/04/03 07:23:09;;;;;;;2.65;1.10;;;;;;;;;;5077506;28;20020;-79
2023/04/03 07:25:34;;;;;;;3.78;1.30;;;;;;;;;;5095959;28;20474;-78
2023/04/03 07:28:00;;;;;;;1.40;1.00;;;;;;;;;;5096013;28;20063;-78
2023/04/03 07:30:26;;;;;;;2.70;1.10;;;;;;;;;;5078119;28;20031;-78
2023/04/03 07:32:51;;;;;;;1.38;0.90;;;;;;;;;;5095978;28;20035;-78
2023/04/03 07:35:17;;;;;;;4.80;1.10;;;;;;;;;;5077682;28;20107;-78
2023/04/03 07:37:43;;;;;;;1.73;1.00;;;;;;;;;;5077669;28;20028;-78
2023/04/03 07:40:09;;;;;;;1.55;1.02;;;;;;;;;;5077476;28;20032;-78
2023/04/03 07:42:36;;;;;;;1.38;1.13;;;;;;;;;;5077726;28;20059;-78
2023/04/03 07:45:05;;;;;;;1.23;0.90;;;;;;;;;;5077661;28;20095;-78
2023/04/03 07:47:31;;;;;;;2.42;1.10;;;;;;;;;;5077509;28;20027;-79
2023/04/03 07:49:57;;;;;;;1.67;1.08;;;;;;;;;;5096514;28;20044;-79
2023/04/03 07:52:22;;;;;;;1.10;0.80;;;;;;;;;;5078384;28;20441;-79
2023/04/03 07:54:48;;;;;;;2.30;0.95;;;;;;;;;;5061123;28;20032;-80
2023/04/03 07:57:13;;;;;;;2.25;1.20;;;;;;;;;;5077502;28;20036;-78
2023/04/03 07:59:40;;;;;;;3.63;1.17;;;;;;;;;;5077771;28;20058;-78
2023/04/03 08:02:10;;;;;;;1.38;0.85;;;;;;;;;;5095738;28;20028;-78
2023/04/03 08:04:36;;;;;;;1.50;0.95;;;;;;;;;;5077433;28;20493;-79
2023/04/03 08:07:01;;;;;;;1.33;1.08;;;;;;;;;;5077447;28;20052;-78
2023/04/03 08:09:26;;;;;;;2.78;1.20;;;;;;;;;;5095254;28;20031;-78
2023/04/03 08:11:53;;;;;;;3.25;0.95;;;;;;;;;;5095026;28;20036;-78
2023/04/03 08:14:19;;;;;;;1.92;1.00;;;;;;;;;;5077693;28;20035;-78
2023/04/03 08:16:46;;;;;;;1.30;0.90;;;;;;;;;;5076769;28;20551;-78
2023/04/03 08:19:12;;;;;;;1.88;0.98;;;;;;;;;;5076873;28;20028;-78
2023/04/03 08:21:41;;;;;;;1.23;0.95;;;;;;;;;;5094703;28;20074;-78
2023/04/03 08:24:07;;;;;;;1.02;0.90;;;;;;;;;;5094823;28;20482;-78
2023/04/03 08:26:32;;;;;;;0.95;0.68;;;;;;;;;;5077097;28;20486;-77
2023/04/03 08:28:58;;;;;;;2.05;0.98;;;;;;;;;;5094792;28;20020;-77
2023/04/03 08:31:23;;;;;;;1.55;0.90;;;;;;;;;;5094763;28;20130;-77
2023/04/03 08:33:49;;;;;;;1.48;0.80;;;;;;;;;;5094137;28;20063;-77
2023/04/03 08:36:22;;;;;;;0.90;0.90;;;;;;;;;;5076372;28;20043;-77
2023/04/03 08:38:49;;;;;;;1.25;1.00;;;;;;;;;;5059629;28;20069;-78
2023/04/03 08:41:32;;;;;;;1.13;0.98;;;;;;;;;;5076595;28;20073;-79
2023/04/03 08:44:36;;;;;;;0.95;0.82;;;;;;;;;;5076732;28;20447;-79
2023/04/03 08:47:14;;;;;;;;;;;;;;;;;;5060111;28;20364;-78
2023/04/03 08:49:53;;;;;;;1.83;1.00;;;;;;;;;;5076172;28;20018;-78
2023/04/03 08:52:23;;;;;;;1.25;0.90;;;;;;;;;;5076467;28;20036;-78
2023/04/03 08:55:03;;;;;;;1.40;0.90;;;;;;;;;;5076366;28;20040;-78
2023/04/03 08:57:31;;;;;;;2.05;0.93;;;;;;;;;;5094080;28;20094;-79
2023/04/03 09:00:00;;;;;;;2.03;0.90;;;;;;;;;;5076327;28;20554;-77
2023/04/03 09:02:32;;;;;;;1.85;0.98;;;;;;;;;;5076785;28;20111;-78
2023/04/03 09:04:58;;;;;;;0.88;0.70;;;;;;;;;;5076758;28;20031;-77
2023/04/03 09:07:52;;;;;;;0.80;0.68;;;;;;;;;;5096084;28;20024;-77
2023/04/03 09:10:19;;;;;;;;;;;;;;;;;;5070793;28;20405;-78
2023/04/03 09:12:47;;;;;;;1.15;0.70;;;;;;;;;;5077421;28;19918;-76
2023/04/03 09:15:18;;;;;;;0.93;0.90;;;;;;;;;;5078063;28;20054;-78
2023/04/03 09:17:46;;;;;;;1.10;0.75;;;;;;;;;;5059635;28;20494;-79
2023/04/03 09:20:24;;;;;;;1.85;0.88;;;;;;;;;;5076682;28;20493;-78
2023/04/03 09:22:50;;;;;;;1.77;0.80;;;;;;;;;;5059417;28;20121;-78
2023/04/03 09:25:23;;;;;;;0.68;0.60;;;;;;;;;;5075944;28;20436;-78
2023/04/03 09:27:48;;;;;;;1.65;1.10;;;;;;;;;;5059249;28;20052;-78
2023/04/03 09:30:23;;;;;;;0.95;0.75;;;;;;;;;;5058938;28;20067;-77
2023/04/03 09:32:50;;;;;;;1.63;0.70;;;;;;;;;;5059519;28;20020;-78
2023/04/03 09:35:24;;;;;;;1.30;0.60;;;;;;;;;;5075992;28;20378;-77
2023/04/03 09:37:52;;;;;;;0.88;0.77;;;;;;;;;;5075772;28;20024;-77
2023/04/03 09:40:38;;;;;;;2.42;0.90;;;;;;;;;;5093521;28;20036;-77
2023/04/03 09:43:25;;;;;;;0.60;0.60;;;;;;;;;;5076058;28;20047;-77
2023/04/03 09:45:52;;;;;;;0.88;0.65;;;;;;;;;;5093389;28;20024;-77
2023/04/03 09:48:20;;;;;;;0.90;0.65;;;;;;;;;;5058652;28;20368;-79
2023/04/03 09:50:59;;;;;;;1.42;0.70;;;;;;;;;;5075124;28;20166;-79
2023/04/03 09:53:35;;;;;;;0.80;0.60;;;;;;;;;;5093777;28;20016;-78
2023/04/03 09:56:20;;;;;;;0.70;0.70;;;;;;;;;;5075347;28;20020;-79
2023/04/03 09:58:59;;;;;;;1.08;0.80;;;;;;;;;;5075833;28;20074;-78
2023/04/03 10:01:28;;;;;;;6.40;0.68;;;;;;;;;;5093554;28;20028;-77
2023/04/03 10:04:02;;;;;;;0.47;0.47;;;;;;;;;;5058604;28;20576;-79
2023/04/03 10:06:31;;;;;;;0.90;0.60;;;;;;;;;;5093254;28;20103;-77
2023/04/03 10:09:04;;;;;;;0.52;0.52;;;;;;;;;;5058473;28;20462;-78
2023/04/03 10:11:30;;;;;;;0.70;0.65;;;;;;;;;;5075394;28;20044;-78
2023/04/03 10:13:59;;;;;;;0.80;0.68;;;;;;;;;;5093152;28;20028;-79
2023/04/03 10:16:48;;;;;;;0.98;0.70;;;;;;;;;;5058790;28;20074;-80
2023/04/03 10:19:39;;;;;;;1.48;0.60;;;;;;;;;;5075271;28;20027;-80
2023/04/03 10:22:18;;;;;;;0.75;0.52;;;;;;;;;;5075104;28;20028;-80
2023/04/03 10:24:49;;;;;;;0.90;0.68;;;;;;;;;;5058326;28;20069;-80
2023/04/03 10:27:30;;;;;;;0.80;0.70;;;;;;;;;;5093565;28;20020;-80
2023/04/03 10:30:04;;;;;;;0.57;0.57;;;;;;;;;;5093060;28;20063;-78
2023/04/03 10:33:05;;;;;;;0.80;0.60;;;;;;;;;;5093187;28;20024;-78
2023/04/03 10:35:31;;;;;;;0.40;0.40;;;;;;;;;;5092839;28;20099;-79
2023/04/03 10:38:16;;;;;;;0.50;0.50;;;;;;;;;;5075764;28;20118;-79
2023/04/03 10:40:48;;;;;;;1.90;0.45;;;;;;;;;;5089281;28;20032;-79
2023/04/03 10:43:25;;;;;;;1.95;0.60;;;;;;;;;;5071373;28;20117;-78
2023/04/03 10:46:04;;;;;;;0.52;0.38;;;;;;;;;;5093129;28;20103;-78
2023/04/03 10:48:59;;;;;;;0.63;0.50;;;;;;;;;;5075045;28;20024;-77
2023/04/03 10:51:44;;;;;;;0.40;0.40;;;;;;;;;;5058826;28;20053;-78
2023/04/03 10:54:22;;;;;;;0.40;0.40;;;;;;;;;;5074820;28;20463;-77
2023/04/03 10:56:52;;;;;;;2.13;0.60;;;;;;;;;;5093488;28;20024;-77
2023/04/03 10:59:40;;;;;;;4.50;0.55;;;;;;;;;;5061595;28;20046;-78
2023/04/03 11:02:12;;;;;;;0.52;0.52;;;;;;;;;;5078293;28;20028;-78
2023/04/03 11:04:40;;;;;;;1.05;0.47;;;;;;;;;;5078287;28;20028;-78
2023/04/03 11:07:18;;;;;;;1.10;0.70;;;;;;;;;;5096261;28;20486;-78
2023/04/03 11:09:46;;;;;;;0.85;0.50;;;;;;;;;;5096303;28;20482;-78
2023/04/03 11:12:29;;;;;;;0.57;0.50;;;;;;;;;;5078048;28;20115;-78
2023/04/03 11:14:56;;;;;;;0.57;0.50;;;;;;;;;;5061464;28;20115;-78
2023/04/03 11:17:24;;;;;;;1.35;0.60;;;;;;;;;;5078136;28;20053;-78
2023/04/03 11:20:20;;;;;;;0.98;0.55;;;;;;;;;;5096036;28;20048;-77
2023/04/03 11:22:52;;;;;;;0.65;0.65;;;;;;;;;;5096204;28;20028;-77
2023/04/03 11:25:22;;;;;;;1.65;0.50;;;;;;;;;;5078205;28;20024;-77
2023/04/03 11:27:54;;;;;;;1.00;0.88;;;;;;;;;;5078283;28;20020;-79
2023/04/03 11:30:22;;;;;;;0.40;0.40;;;;;;;;;;5060982;28;20032;-79
2023/04/03 11:32:56;;;;;;;1.00;0.73;;;;;;;;;;5077717;28;20390;-78
2023/04/03 11:35:22;;;;;;;0.82;0.63;;;;;;;;;;5096043;28;20382;-77
2023/04/03 11:37:50;;;;;;;0.75;0.65;;;;;;;;;;5077977;28;20036;-77
2023/04/03 11:40:17;;;;;;;1.55;0.70;;;;;;;;;;5077789;28;20059;-77
2023/04/03 11:42:46;;;;;;;0.43;0.43;;;;;;;;;;5077407;28;20032;-78
2023/04/03 11:45:35;;;;;;;0.65;0.65;;;;;;;;;;5060713;28;20033;-79
2023/04/03 11:48:06;;;;;;;1.17;0.70;;;;;;;;;;5078669;28;20489;-78
2023/04/03 11:50:38;;;;;;;0.95;0.70;;;;;;;;;;5077353;28;20491;-78
2023/04/03 11:53:06;;;;;;;0.65;0.65;;;;;;;;;;5077331;28;20031;-77
2023/04/03 11:55:32;;;;;;;1.58;0.60;;;;;;;;;;5096085;28;20099;-77
2023/04/03 11:57:57;;;;;;;1.08;0.70;;;;;;;;;;5077116;28;20542;-77
2023/04/03 12:00:51;;;;;;;0.57;0.57;;;;;;;;;;5077307;28;20038;-78
2023/04/03 12:06:13;;;;;;;0.52;0.52;;;;;;;;;;5095780;28;20108;-77
2023/04/03 12:08:41;;;;;;;1.02;0.90;;;;;;;;;;5047663;28;20482;-77
2023/04/03 12:11:10;;;;;;;0.47;0.47;;;;;;;;;;5095554;28;20039;-77
2023/04/03 12:13:54;;;;;;;0.73;0.55;;;;;;;;;;5076792;28;20066;-77
2023/04/03 12:16:19;;;;;;;1.80;0.60;;;;;;;;;;5095224;28;20074;-77
2023/04/03 12:19:12;;;;;;;0.68;0.55;;;;;;;;;;5076652;28;20576;-77
2023/04/03 12:21:44;;;;;;;0.55;0.45;;;;;;;;;;5094761;28;20107;-77
2023/04/03 12:24:10;;;;;;;0.90;0.70;;;;;;;;;;5094733;28;20028;-77
2023/04/03 12:26:59;;;;;;;0.63;0.45;;;;;;;;;;5094933;28;20024;-78
2023/04/03 12:29:28;;;;;;;0.90;0.65;;;;;;;;;;5029298;28;20035;-77
2023/04/03 12:32:30;;;;;;;0.90;0.65;;;;;;;;;;5076694;28;20020;-77
2023/04/03 12:35:14;;;;;;;0.75;0.50;;;;;;;;;;5094630;28;20024;-77
2023/04/03 12:37:58;;;;;;;;;;;;;;;;;;5094802;28;20028;-77
2023/04/03 12:40:43;;;;;;;0.70;0.70;;;;;;;;;;5092764;28;19934;-78
2023/04/03 12:43:24;;;;;;;1.20;0.65;;;;;;;;;;5056456;28;20070;-77
2023/04/03 12:46:08;;;;;;;0.52;0.47;;;;;;;;;;5073073;28;20107;-77
2023/04/03 12:48:45;;;;;;;1.15;0.60;;;;;;;;;;5075548;28;20017;-77
2023/04/03 12:51:29;;;;;;;0.43;0.43;;;;;;;;;;5076312;28;20102;-77
2023/04/03 12:54:00;;;;;;;0.57;0.57;;;;;;;;;;5094255;28;20414;-79
2023/04/03 12:56:31;;;;;;;0.60;0.60;;;;;;;;;;5059358;28;20170;-77
2023/04/03 12:59:20;;;;;;;0.65;0.60;;;;;;;;;;5076263;28;20053;-77
2023/04/03 13:02:00;;;;;;;0.57;0.50;;;;;;;;;;5076016;28;20115;-77
2023/04/03 13:04:31;;;;;;;0.88;0.65;;;;;;;;;;5094040;28;20062;-78
2023/04/03 13:06:56;;;;;;;0.57;0.57;;;;;;;;;;5076003;28;20023;-78
2023/04/03 13:09:30;;;;;;;0.98;0.60;;;;;;;;;;5075923;28;20020;-78
2023/04/03 13:11:58;;;;;;;0.50;0.50;;;;;;;;;;5076325;28;20024;-78
2023/04/03 13:14:27;;;;;;;0.60;0.60;;;;;;;;;;5075749;28;20459;-78
2023/04/03 13:16:58;;;;;;;0.65;0.60;;;;;;;;;;5093837;28;20028;-78
2023/04/03 13:19:26;;;;;;;0.70;0.63;;;;;;;;;;5075536;28;20375;-78
2023/04/03 13:21:59;;;;;;;0.40;0.40;;;;;;;;;;5075792;28;20051;-78
2023/04/03 13:24:25;;;;;;;0.50;0.50;;;;;;;;;;5075739;28;20023;-77
2023/04/03 13:26:51;;;;;;;1.10;0.88;;;;;;;;;;5058950;28;20050;-78
2023/04/03 13:29:27;;;;;;;0.40;0.40;;;;;;;;;;5076154;28;20027;-77
2023/04/03 13:31:55;;;;;;;0.47;0.43;;;;;;;;;;5058870;28;20024;-78
2023/04/03 13:34:23;;;;;;;1.00;0.70;;;;;;;;;;5075987;28;20024;-78
2023/04/03 13:36:53;;;;;;;0.50;0.50;;;;;;;;;;5058823;28;20497;-78
2023/04/03 13:39:18;;;;;;;1.17;0.57;;;;;;;;;;5093880;28;20081;-78
2023/04/03 13:42:02;;;;;;;0.50;0.50;;;;;;;;;;5076020;28;20032;-78
2023/04/03 13:44:30;;;;;;;;;;;;;;;;;;5076089;28;20051;-77
2023/04/03 13:47:09;;;;;;;0.73;0.60;;;;;;;;;;5093391;28;19908;-77
2023/04/03 13:49:37;;;;;;;0.63;0.57;;;;;;;;;;5093172;28;20054;-78
2023/04/03 13:52:28;;;;;;;0.98;0.63;;;;;;;;;;5075818;28;20032;-78
2023/04/03 13:54:57;;;;;;;0.85;0.70;;;;;;;;;;5058297;28;20027;-78
2023/04/03 13:57:23;;;;;;;0.57;0.55;;;;;;;;;;5074580;28;20024;-78
2023/04/03 13:59:49;;;;;;;0.90;0.75;;;;;;;;;;5092432;28;20028;-78
2023/04/03 14:02:41;;;;;;;0.52;0.52;;;;;;;;;;5057695;28;20081;-78
2023/04/03 14:05:08;;;;;;;0.57;0.57;;;;;;;;;;5087487;28;20037;-78
2023/04/03 14:07:33;;;;;;;0.68;0.68;;;;;;;;;;5057126;28;20577;-79
2023/04/03 14:09:59;;;;;;;1.05;0.70;;;;;;;;;;5074696;28;20054;-78
2023/04/03 14:12:28;;;;;;;0.60;0.60;;;;;;;;;;5074633;28;20035;-77
2023/04/03 14:14:53;;;;;;;2.38;0.85;;;;;;;;;;5074759;28;20028;-77
2023/04/03 14:17:22;;;;;;;0.82;0.70;;;;;;;;;;5074181;28;20046;-77
2023/04/03 14:19:49;;;;;;;0.70;0.60;;;;;;;;;;5074284;28;20028;-78
2023/04/03 14:22:21;;;;;;;0.80;0.60;;;;;;;;;;5074417;28;20372;-78
2023/04/03 14:24:46;;;;;;;2.28;0.63;;;;;;;;;;5092196;28;20078;-77
2023/04/03 14:27:19;;;;;;;0.73;0.73;;;;;;;;;;5092326;28;20479;-77
2023/04/03 14:29:46;;;;;;;0.60;0.60;;;;;;;;;;5057425;28;20250;-77
2023/04/03 14:32:13;;;;;;;0.57;0.45;;;;;;;;;;5075650;28;20028;-77
2023/04/03 14:34:39;;;;;;;0.90;0.55;;;;;;;;;;5078351;28;20032;-77
2023/04/03 14:37:05;;;;;;;0.68;0.63;;;;;;;;;;5061321;28;20387;-77
2023/04/03 14:39:31;;;;;;;0.68;0.68;;;;;;;;;;5078399;28;20031;-77
2023/04/03 14:41:56;;;;;;;1.02;0.70;;;;;;;;;;5097134;28;20035;-77
2023/04/03 14:44:22;;;;;;;0.98;0.60;;;;;;;;;;5078709;28;20138;-78
2023/04/03 14:46:48;;;;;;;0.70;0.70;;;;;;;;;;5079115;28;20031;-79
2023/04/03 14:49:20;;;;;;;0.60;0.60;;;;;;;;;;5078687;28;20106;-78
2023/04/03 14:51:45;;;;;;;0.82;0.50;;;;;;;;;;5078284;28;20052;-78
2023/04/03 14:54:18;;;;;;;0.98;0.90;;;;;;;;;;5095991;28;20047;-78
2023/04/03 14:56:44;;;;;;;0.95;0.85;;;;;;;;;;5061886;28;20032;-80
2023/04/03 14:59:11;;;;;;;0.75;0.57;;;;;;;;;;5079214;28;20039;-81